createdAt,value
2023-05-10T00:02:07.714Z,12.21
2023-05-10T00:04:36.363Z,12.25
2023-05-10T00:07:04.777Z,12.22
2023-05-10T00:09:34.457Z,12.22
2023-05-10T00:12:02.783Z,12.25
2023-05-10T00:14:31.276Z,12.23
2023-05-10T00:16:59.601Z,12.17
2023-05-10T00:19:28.003Z,12.23
2023-05-10T00:21:56.468Z,12.24
2023-05-10T00:24:24.795Z,12.26
2023-05-10T00:26:54.510Z,12.18
2023-05-10T00:29:22.932Z,12.10
2023-05-10T00:31:51.346Z,12.03
2023-05-10T00:34:19.705Z,12.02
2023-05-10T00:36:47.992Z,11.95
2023-05-10T00:39:16.411Z,11.96
2023-05-10T00:41:44.721Z,11.98
2023-05-10T00:44:14.505Z,12.00
2023-05-10T00:46:43.510Z,12.01
2023-05-10T00:49:12.452Z,12.00
2023-05-10T00:51:41.029Z,12.01
2023-05-10T00:54:09.692Z,12.02
2023-05-10T00:56:38.778Z,12.00
2023-05-10T00:59:07.190Z,11.94
2023-05-10T01:01:37.760Z,11.93
2023-05-10T01:04:06.456Z,11.95
2023-05-10T01:06:34.890Z,11.90
2023-05-10T01:09:03.376Z,11.85
2023-05-10T01:11:32.269Z,11.81
2023-05-10T01:14:01.475Z,11.72
2023-05-10T01:16:31.888Z,11.67
2023-05-10T01:19:01.781Z,11.57
2023-05-10T01:21:35.084Z,11.51
2023-05-10T01:24:33.361Z,11.47
2023-05-10T01:27:21.991Z,11.50
2023-05-10T01:30:22.357Z,11.50
2023-05-10T01:32:59.239Z,11.51
2023-05-10T01:35:35.074Z,11.46
2023-05-10T01:38:10.057Z,11.36
2023-05-10T01:40:42.716Z,11.27
2023-05-10T01:43:24.352Z,11.35
2023-05-10T01:46:01.968Z,11.30
2023-05-10T01:48:33.038Z,11.27
2023-05-10T01:51:01.645Z,11.20
2023-05-10T01:53:31.139Z,11.17
2023-05-10T01:56:01.254Z,11.16
2023-05-10T01:58:32.552Z,11.13
2023-05-10T02:01:04.589Z,11.01
2023-05-10T02:03:37.176Z,11.00
2023-05-10T02:06:07.095Z,10.94
2023-05-10T02:08:37.959Z,10.86
2023-05-10T02:11:07.362Z,10.81
2023-05-10T02:13:40.311Z,10.77
2023-05-10T02:16:09.561Z,10.78
2023-05-10T02:18:41.351Z,10.79
2023-05-10T02:21:11.357Z,10.82
2023-05-10T02:23:40.868Z,10.74
2023-05-10T02:26:10.751Z,10.69
2023-05-10T02:28:40.167Z,10.66
2023-05-10T02:31:10.794Z,10.60
2023-05-10T02:33:42.179Z,10.56
2023-05-10T02:36:12.760Z,10.52
2023-05-10T02:38:42.327Z,10.51
2023-05-10T02:41:12.354Z,10.47
2023-05-10T02:43:42.846Z,10.43
2023-05-10T02:46:11.220Z,10.44
2023-05-10T02:48:41.031Z,10.40
2023-05-10T02:51:10.770Z,10.43
2023-05-10T02:53:43.078Z,10.40
2023-05-10T02:56:16.046Z,10.33
2023-05-10T02:58:44.441Z,10.30
2023-05-10T03:01:12.822Z,10.29
2023-05-10T03:03:42.746Z,10.24
2023-05-10T03:06:11.538Z,10.24
2023-05-10T03:08:40.206Z,10.24
2023-05-10T03:11:24.672Z,10.25
2023-05-10T03:14:09.851Z,10.27
2023-05-10T03:16:46.274Z,10.29
2023-05-10T03:19:23.325Z,10.27
2023-05-10T03:21:54.712Z,10.29
2023-05-10T03:24:25.226Z,10.25
2023-05-10T03:26:57.622Z,10.18
2023-05-10T03:29:28.889Z,10.13
2023-05-10T03:31:57.316Z,10.06
2023-05-10T03:34:33.463Z,10.02
2023-05-10T03:37:01.758Z,10.04
2023-05-10T03:39:30.125Z,10.04
2023-05-10T03:41:58.442Z,10.00
2023-05-10T03:44:26.758Z,10.01
2023-05-10T03:46:55.162Z,9.98
2023-05-10T03:49:23.509Z,9.97
2023-05-10T03:51:53.146Z,9.92
2023-05-10T03:54:21.469Z,9.87
2023-05-10T03:56:49.870Z,9.87
2023-05-10T03:59:18.167Z,9.88
2023-05-10T04:01:46.574Z,9.91
2023-05-10T04:04:14.956Z,9.82
2023-05-10T04:06:43.327Z,9.81
2023-05-10T04:09:13.094Z,9.80
2023-05-10T04:11:41.468Z,9.81
2023-05-10T04:14:09.800Z,9.84
2023-05-10T04:16:38.327Z,9.89
2023-05-10T04:19:06.843Z,9.94
2023-05-10T04:21:35.142Z,10.02
2023-05-10T04:24:03.445Z,10.02
2023-05-10T04:26:33.323Z,10.05
2023-05-10T04:29:01.661Z,10.03
2023-05-10T04:31:30.066Z,10.03
2023-05-10T04:33:58.404Z,10.03
2023-05-10T04:36:26.727Z,10.08
2023-05-10T04:38:55.042Z,10.10
2023-05-10T04:41:23.396Z,10.11
2023-05-10T04:43:53.136Z,10.20
2023-05-10T04:46:21.434Z,10.22
2023-05-10T04:48:49.969Z,10.24
2023-05-10T04:51:18.276Z,10.30
2023-05-10T04:53:54.156Z,10.39
2023-05-10T04:56:26.150Z,10.45
2023-05-10T04:58:55.830Z,10.49
2023-05-10T05:01:24.257Z,10.57
2023-05-10T05:03:53.851Z,10.61
2023-05-10T05:06:22.755Z,10.70
2023-05-10T05:08:51.144Z,10.75
2023-05-10T05:11:19.529Z,10.81
2023-05-10T05:13:47.900Z,10.86
2023-05-10T05:16:17.824Z,10.90
2023-05-10T05:18:46.218Z,10.98
2023-05-10T05:21:18.015Z,11.03
2023-05-10T05:23:46.622Z,11.09
2023-05-10T05:26:15.854Z,11.15
2023-05-10T05:28:44.264Z,11.21
2023-05-10T05:31:12.598Z,11.24
2023-05-10T05:33:42.311Z,11.30
2023-05-10T05:36:11.210Z,11.37
2023-05-10T05:38:39.551Z,11.46
2023-05-10T05:41:07.866Z,11.51
2023-05-10T05:43:38.036Z,11.56
2023-05-10T05:46:07.046Z,11.62
2023-05-10T05:48:35.558Z,11.69
2023-05-10T05:51:07.284Z,11.78
2023-05-10T05:53:35.920Z,11.88
2023-05-10T05:56:04.665Z,12.01
2023-05-10T05:58:33.050Z,12.07
2023-05-10T06:01:01.399Z,12.17
2023-05-10T06:03:29.815Z,12.25
2023-05-10T06:05:58.268Z,12.36
2023-05-10T06:08:27.927Z,12.44
2023-05-10T06:10:56.220Z,12.48
2023-05-10T06:13:24.614Z,12.55
2023-05-10T06:15:52.930Z,12.68
2023-05-10T06:18:21.260Z,12.79
2023-05-10T06:20:49.541Z,12.87
2023-05-10T06:23:17.897Z,12.91
2023-05-10T06:25:47.538Z,12.93
2023-05-10T06:28:15.996Z,13.04
2023-05-10T06:30:44.418Z,13.01
2023-05-10T06:33:12.816Z,13.07
2023-05-10T06:35:41.312Z,13.12
2023-05-10T06:38:09.637Z,13.14
2023-05-10T06:40:38.095Z,13.18
2023-05-10T06:43:07.742Z,13.32
2023-05-10T06:45:36.073Z,13.36
2023-05-10T06:48:04.755Z,13.40
2023-05-10T06:50:33.237Z,13.50
2023-05-10T06:53:02.747Z,13.54
2023-05-10T06:55:31.217Z,13.59
2023-05-10T06:57:59.619Z,13.68
2023-05-10T07:00:29.365Z,13.69
2023-05-10T07:02:57.777Z,13.75
2023-05-10T07:05:28.790Z,13.81
2023-05-10T07:07:57.338Z,13.93
2023-05-10T07:10:25.673Z,13.97
2023-05-10T07:12:54.090Z,13.98
2023-05-10T07:15:22.763Z,14.04
2023-05-10T07:17:53.159Z,14.09
2023-05-10T07:20:21.634Z,14.15
2023-05-10T07:22:49.931Z,14.26
2023-05-10T07:25:18.580Z,14.33
2023-05-10T07:27:49.374Z,14.34
2023-05-10T07:30:17.789Z,14.39
2023-05-10T07:32:46.227Z,14.48
2023-05-10T07:35:16.530Z,14.59
2023-05-10T07:37:45.165Z,14.67
2023-05-10T07:40:13.599Z,14.78
2023-05-10T07:42:41.899Z,14.82
2023-05-10T07:45:11.169Z,14.87
2023-05-10T07:47:39.522Z,14.94
2023-05-10T07:50:09.691Z,15.03
2023-05-10T07:52:39.451Z,15.10
2023-05-10T07:55:09.273Z,15.21
2023-05-10T07:57:37.858Z,15.24
2023-05-10T08:00:07.251Z,15.32
2023-05-10T08:02:37.915Z,15.38
2023-05-10T08:05:07.390Z,15.43
2023-05-10T08:07:35.747Z,15.47
2023-05-10T08:10:06.113Z,15.52
2023-05-10T08:12:34.428Z,15.58
2023-05-10T08:15:02.910Z,15.66
2023-05-10T08:17:31.346Z,15.76
2023-05-10T08:19:59.698Z,15.84
2023-05-10T08:22:28.385Z,15.90
2023-05-10T08:24:56.708Z,15.95
2023-05-10T08:27:26.403Z,16.02
2023-05-10T08:29:54.829Z,16.10
2023-05-10T08:32:23.157Z,16.15
2023-05-10T08:34:51.508Z,16.26
2023-05-10T08:37:19.975Z,16.28
2023-05-10T08:39:48.964Z,16.36
2023-05-10T08:42:21.085Z,16.41
2023-05-10T08:44:51.117Z,16.49
2023-05-10T08:47:20.690Z,16.52
2023-05-10T08:49:52.069Z,16.57
2023-05-10T08:52:20.807Z,16.78
2023-05-10T08:54:49.710Z,16.81
2023-05-10T08:57:18.203Z,16.84
2023-05-10T08:59:46.972Z,16.88
2023-05-10T09:02:18.701Z,16.90
2023-05-10T09:04:47.737Z,16.98
2023-05-10T09:07:16.849Z,17.06
2023-05-10T09:09:46.176Z,17.17
2023-05-10T09:12:16.601Z,17.23
2023-05-10T09:14:47.581Z,17.28
2023-05-10T09:17:17.349Z,17.36
2023-05-10T09:19:47.170Z,17.48
2023-05-10T09:22:15.646Z,17.54
2023-05-10T09:24:46.243Z,17.66
2023-05-10T09:27:14.744Z,17.64
2023-05-10T09:29:44.760Z,17.72
2023-05-10T09:32:13.865Z,17.82
2023-05-10T09:34:43.746Z,17.85
2023-05-10T09:37:12.049Z,17.94
2023-05-10T09:39:42.279Z,18.01
2023-05-10T09:42:11.909Z,18.15
2023-05-10T09:44:41.849Z,18.20
2023-05-10T09:47:10.250Z,18.22
2023-05-10T09:49:38.589Z,18.28
2023-05-10T09:52:10.003Z,18.37
2023-05-10T09:54:38.297Z,18.49
2023-05-10T09:57:06.882Z,18.58
2023-05-10T09:59:36.201Z,18.69
2023-05-10T10:02:05.031Z,18.73
2023-05-10T10:04:33.930Z,18.78
2023-05-10T10:07:04.726Z,18.86
2023-05-10T10:09:36.498Z,18.90
2023-05-10T10:12:05.618Z,18.96
2023-05-10T10:14:34.164Z,19.02
2023-05-10T10:19:36.081Z,19.30
2023-05-10T10:22:05.103Z,19.59
2023-05-10T10:24:34.945Z,19.76
2023-05-10T10:27:11.367Z,20.13
2023-05-10T10:29:49.532Z,20.36
2023-05-10T10:32:26.780Z,20.51
2023-05-10T10:34:57.158Z,21.07
2023-05-10T10:37:42.963Z,21.47
2023-05-10T10:40:29.887Z,21.54
2023-05-10T10:43:00.080Z,21.43
2023-05-10T10:45:28.738Z,21.41
2023-05-10T10:48:24.555Z,21.60
2023-05-10T10:50:58.542Z,21.80
2023-05-10T10:53:28.232Z,22.13
2023-05-10T10:56:08.690Z,22.42
2023-05-10T10:58:37.715Z,22.31
2023-05-10T11:01:14.335Z,22.46
2023-05-10T11:03:56.800Z,22.41
2023-05-10T11:06:32.609Z,22.52
2023-05-10T11:09:01.998Z,22.87
2023-05-10T11:11:31.855Z,23.11
2023-05-10T11:14:06.330Z,23.07
2023-05-10T11:16:44.710Z,23.23
2023-05-10T11:19:14.772Z,23.62
2023-05-10T11:21:50.480Z,23.89
2023-05-10T11:24:20.650Z,24.24
2023-05-10T11:26:52.617Z,24.17
2023-05-10T11:29:21.224Z,24.05
2023-05-10T11:31:50.929Z,24.39
2023-05-10T11:34:26.847Z,24.30
2023-05-10T11:36:55.986Z,24.43
2023-05-10T11:39:28.524Z,24.85
2023-05-10T11:41:59.388Z,24.69
2023-05-10T11:44:31.927Z,24.57
2023-05-10T11:47:01.712Z,24.38
2023-05-10T11:49:30.155Z,24.95
2023-05-10T11:52:06.544Z,24.71
2023-05-10T11:54:35.796Z,24.77
2023-05-10T11:57:06.078Z,24.97
2023-05-10T11:59:34.470Z,25.13
2023-05-10T12:02:03.185Z,25.33
2023-05-10T12:04:31.884Z,25.10
2023-05-10T12:07:00.465Z,24.82
2023-05-10T12:09:42.560Z,25.14
2023-05-10T12:12:17.854Z,25.10
2023-05-10T12:14:46.158Z,25.07
2023-05-10T12:17:15.024Z,25.18
2023-05-10T12:19:44.738Z,25.60
2023-05-10T12:22:13.135Z,25.91
2023-05-10T12:24:41.537Z,25.56
2023-05-10T12:27:10.758Z,25.98
2023-05-10T12:29:44.929Z,26.07
2023-05-10T12:32:13.464Z,25.60
2023-05-10T12:34:42.288Z,25.93
2023-05-10T12:37:10.778Z,25.87
2023-05-10T12:39:43.088Z,25.71
2023-05-10T12:42:12.448Z,25.54
2023-05-10T12:44:42.160Z,25.89
2023-05-10T12:47:10.622Z,25.64
2023-05-10T12:49:38.956Z,25.40
2023-05-10T12:52:07.356Z,25.67
2023-05-10T12:54:36.880Z,26.12
2023-05-10T12:57:05.292Z,26.06
2023-05-10T12:59:35.187Z,26.14
2023-05-10T13:02:05.964Z,26.18
2023-05-10T13:04:34.542Z,26.18
2023-05-10T13:07:02.885Z,26.07
2023-05-10T13:09:31.310Z,26.47
2023-05-10T13:11:59.647Z,26.60
2023-05-10T13:14:28.381Z,26.54
2023-05-10T13:16:56.777Z,25.95
2023-05-10T13:19:26.582Z,26.07
2023-05-10T13:21:54.899Z,25.99
2023-05-10T13:24:23.328Z,25.88
2023-05-10T13:26:51.666Z,25.99
2023-05-10T13:29:20.316Z,26.37
2023-05-10T13:31:48.726Z,26.50
2023-05-10T13:34:17.619Z,26.57
2023-05-10T13:36:47.395Z,26.46
2023-05-10T13:39:15.797Z,26.38
2023-05-10T13:41:44.199Z,26.35
2023-05-10T13:44:14.713Z,26.61
2023-05-10T13:46:43.367Z,26.90
2023-05-10T13:49:11.788Z,26.71
2023-05-10T13:51:40.168Z,26.38
2023-05-10T13:54:11.961Z,25.62
2023-05-10T13:56:41.880Z,26.08
2023-05-10T13:59:10.280Z,26.09
2023-05-10T14:01:39.130Z,26.03
2023-05-10T14:04:08.109Z,26.41
2023-05-10T14:06:36.505Z,26.05
2023-05-10T14:09:05.122Z,26.50
2023-05-10T14:11:34.950Z,26.41
2023-05-10T14:14:03.537Z,26.19
2023-05-10T14:16:32.172Z,25.96
2023-05-10T14:19:00.607Z,26.27
2023-05-10T14:21:30.369Z,26.21
2023-05-10T14:23:58.755Z,26.11
2023-05-10T14:26:27.263Z,26.29
2023-05-10T14:28:57.223Z,26.52
2023-05-10T14:31:26.545Z,26.66
2023-05-10T14:33:54.997Z,26.52
2023-05-10T14:36:23.524Z,26.20
2023-05-10T14:38:52.568Z,26.19
2023-05-10T14:41:20.914Z,26.56
2023-05-10T14:43:49.280Z,27.00
2023-05-10T14:46:20.131Z,27.26
2023-05-10T14:48:48.516Z,26.62
2023-05-10T14:51:16.935Z,26.61
2023-05-10T14:53:45.816Z,26.27
2023-05-10T14:56:14.148Z,26.29
2023-05-10T14:58:42.470Z,26.08
2023-05-10T15:01:10.818Z,25.86
2023-05-10T15:03:41.790Z,25.75
2023-05-10T15:06:11.615Z,25.76
2023-05-10T15:08:39.930Z,26.04
2023-05-10T15:11:08.378Z,25.46
2023-05-10T15:13:36.705Z,25.28
2023-05-10T15:16:05.326Z,24.85
2023-05-10T15:18:33.789Z,24.75
2023-05-10T15:21:03.596Z,24.52
2023-05-10T15:23:33.025Z,24.65
2023-05-10T15:26:02.428Z,24.43
2023-05-10T15:28:32.396Z,24.24
2023-05-10T15:31:01.324Z,23.99
2023-05-10T15:33:29.690Z,23.90
2023-05-10T15:35:58.069Z,23.81
2023-05-10T15:38:27.850Z,23.54
2023-05-10T15:40:58.611Z,23.49
2023-05-10T15:43:27.219Z,23.44
2023-05-10T15:45:55.570Z,23.28
2023-05-10T15:48:23.949Z,23.20
2023-05-10T15:50:52.300Z,23.17
2023-05-10T15:53:20.699Z,23.04
2023-05-10T15:55:50.406Z,23.08
2023-05-10T15:58:18.801Z,23.17
2023-05-10T16:00:47.151Z,23.20
2023-05-10T16:03:16.243Z,23.28
2023-05-10T16:05:44.642Z,23.29
2023-05-10T16:08:12.951Z,23.32
2023-05-10T16:10:42.250Z,23.24
2023-05-10T16:13:12.082Z,23.07
2023-05-10T16:15:40.416Z,22.87
2023-05-10T16:18:08.802Z,22.70
2023-05-10T16:20:37.201Z,22.75
2023-05-10T16:23:06.971Z,22.51
2023-05-10T16:25:35.705Z,22.42
2023-05-10T16:28:04.371Z,22.38
2023-05-10T16:30:34.304Z,22.36
2023-05-10T16:33:02.842Z,22.39
2023-05-10T16:35:31.222Z,22.33
2023-05-10T16:37:59.590Z,22.34
2023-05-10T16:40:27.990Z,22.34
2023-05-10T16:42:56.412Z,22.16
2023-05-10T16:45:25.823Z,22.04
2023-05-10T16:47:56.424Z,22.00
2023-05-10T16:50:25.106Z,21.86
2023-05-10T16:52:53.536Z,21.79
2023-05-10T16:55:24.791Z,21.82
2023-05-10T16:57:59.612Z,21.65
2023-05-10T17:00:28.080Z,21.65
2023-05-10T17:02:58.114Z,21.45
2023-05-10T17:05:27.317Z,21.29
2023-05-10T17:07:56.001Z,21.09
2023-05-10T17:10:24.412Z,20.97
2023-05-10T17:12:53.614Z,20.91
2023-05-10T17:15:22.275Z,20.82
2023-05-10T17:17:50.770Z,20.67
2023-05-10T17:20:20.896Z,20.60
2023-05-10T17:22:49.860Z,20.54
2023-05-10T17:25:18.367Z,20.43
2023-05-10T17:27:47.057Z,20.23
2023-05-10T17:30:16.927Z,20.19
2023-05-10T17:32:45.372Z,20.23
2023-05-10T17:35:13.859Z,20.10
2023-05-10T17:37:44.125Z,20.12
2023-05-10T17:40:13.200Z,20.08
2023-05-10T17:42:41.825Z,20.00
2023-05-10T17:45:11.241Z,19.88
2023-05-10T17:47:39.640Z,19.90
2023-05-10T17:50:10.062Z,19.75
2023-05-10T17:52:38.660Z,19.71
2023-05-10T17:55:09.656Z,19.67
2023-05-10T17:57:38.807Z,19.61
2023-05-10T18:00:10.123Z,19.41
2023-05-10T18:02:38.604Z,19.39
2023-05-10T18:05:07.826Z,19.30
2023-05-10T18:07:36.956Z,19.27
2023-05-10T18:10:06.678Z,19.09
2023-05-10T18:12:36.503Z,19.09
2023-05-10T18:15:05.357Z,18.96
2023-05-10T18:17:34.961Z,18.87
2023-05-10T18:20:03.526Z,18.95
2023-05-10T18:22:31.887Z,18.92
2023-05-10T18:25:00.286Z,18.87
2023-05-10T18:27:28.954Z,18.76
2023-05-10T18:29:58.655Z,18.77
2023-05-10T18:32:27.109Z,18.70
2023-05-10T18:34:56.624Z,18.59
2023-05-10T18:37:25.149Z,18.55
2023-05-10T18:39:54.048Z,18.45
2023-05-10T18:42:22.941Z,18.38
2023-05-10T18:44:51.399Z,18.30
2023-05-10T18:47:21.347Z,18.28
2023-05-10T18:49:49.938Z,18.18
2023-05-10T18:52:18.947Z,18.13
2023-05-10T18:54:47.469Z,18.10
2023-05-10T18:57:16.003Z,18.01
2023-05-10T18:59:44.715Z,17.95
2023-05-10T19:02:13.170Z,17.93
2023-05-10T19:04:43.357Z,17.90
2023-05-10T19:07:11.969Z,17.87
2023-05-10T19:09:40.397Z,17.85
2023-05-10T19:12:08.894Z,17.80
2023-05-10T19:14:37.296Z,17.73
2023-05-10T19:17:08.782Z,17.64
2023-05-10T19:19:37.567Z,17.58
2023-05-10T19:22:07.379Z,17.57
2023-05-10T19:24:37.224Z,17.49
2023-05-10T19:27:05.729Z,17.45
2023-05-10T19:29:34.141Z,17.36
2023-05-10T19:32:02.591Z,17.27
2023-05-10T19:34:31.124Z,17.16
2023-05-10T19:36:59.758Z,17.10
2023-05-10T19:39:30.850Z,16.99
2023-05-10T19:41:59.607Z,16.90
2023-05-10T19:44:27.999Z,16.85
2023-05-10T19:46:57.046Z,16.81
2023-05-10T19:49:27.135Z,16.77
2023-05-10T19:51:56.078Z,16.72
2023-05-10T19:54:24.400Z,16.69
2023-05-10T19:56:54.086Z,16.67
2023-05-10T19:59:22.413Z,16.63
2023-05-10T20:01:50.737Z,16.61
2023-05-10T20:04:19.310Z,16.62
2023-05-10T20:06:47.837Z,16.57
2023-05-10T20:09:16.589Z,16.53
2023-05-10T20:11:44.905Z,16.51
2023-05-10T20:14:14.693Z,16.46
2023-05-10T20:16:43.088Z,16.45
2023-05-10T20:19:12.256Z,16.42
2023-05-10T20:21:40.694Z,16.45
2023-05-10T20:24:10.082Z,16.41
2023-05-10T20:26:38.510Z,16.37
2023-05-10T20:29:07.030Z,16.31
2023-05-10T20:31:36.798Z,16.27
2023-05-10T20:34:05.431Z,16.25
2023-05-10T20:36:33.881Z,16.23
2023-05-10T20:39:02.224Z,16.19
2023-05-10T20:41:30.557Z,16.16
2023-05-10T20:43:58.893Z,16.09
2023-05-10T20:46:28.095Z,16.07
2023-05-10T20:48:57.957Z,16.03
2023-05-10T20:51:27.024Z,16.00
2023-05-10T20:53:57.175Z,16.00
2023-05-10T20:56:26.884Z,15.98
2023-05-10T20:58:55.231Z,15.92
2023-05-10T21:01:23.856Z,15.90
2023-05-10T21:03:52.377Z,15.88
2023-05-10T21:06:22.056Z,15.85
2023-05-10T21:08:50.385Z,15.79
2023-05-10T21:11:18.810Z,15.76
2023-05-10T21:13:47.340Z,15.77
2023-05-10T21:16:15.795Z,15.77
2023-05-10T21:18:44.252Z,15.78
2023-05-10T21:21:12.651Z,15.85
2023-05-10T21:23:42.367Z,15.90
2023-05-10T21:26:10.744Z,15.92
2023-05-10T21:28:40.268Z,15.92
2023-05-10T21:31:08.822Z,15.90
2023-05-10T21:33:37.350Z,15.87
2023-05-10T21:36:06.516Z,15.86
2023-05-10T21:38:34.905Z,15.80
2023-05-10T21:41:07.741Z,15.72
2023-05-10T21:43:36.134Z,15.65
2023-05-10T21:46:04.788Z,15.68
2023-05-10T21:48:33.230Z,15.74
2023-05-10T21:51:02.068Z,15.73
2023-05-10T21:53:30.518Z,15.71
2023-05-10T21:55:58.846Z,15.67
2023-05-10T21:58:28.656Z,15.64
2023-05-10T22:00:57.100Z,15.67
2023-05-10T22:03:26.203Z,15.71
2023-05-10T22:05:54.701Z,15.70
2023-05-10T22:08:22.990Z,15.64
2023-05-10T22:10:52.701Z,15.61
2023-05-10T22:13:21.104Z,15.60
2023-05-10T22:15:51.654Z,15.55
2023-05-10T22:18:21.031Z,15.52
2023-05-10T22:20:49.449Z,15.49
2023-05-10T22:23:17.832Z,15.48
2023-05-10T22:25:46.193Z,15.44
2023-05-10T22:28:15.842Z,15.42
2023-05-10T22:30:45.123Z,15.38
2023-05-10T22:33:15.048Z,15.33
2023-05-10T22:35:43.454Z,15.28
2023-05-10T22:38:12.685Z,15.22
2023-05-10T22:40:41.067Z,15.14
2023-05-10T22:43:09.585Z,15.07
2023-05-10T22:45:38.046Z,15.00
2023-05-10T22:48:06.651Z,14.97
2023-05-10T22:50:36.992Z,14.94
2023-05-10T22:53:06.631Z,14.88
2023-05-10T22:55:36.461Z,14.87
2023-05-10T22:58:04.916Z,14.83
2023-05-10T23:00:33.867Z,14.81
2023-05-10T23:03:02.627Z,14.75
2023-05-10T23:05:31.039Z,14.69
2023-05-10T23:08:00.741Z,14.66
2023-05-10T23:10:29.103Z,14.64
2023-05-10T23:12:57.457Z,14.60
2023-05-10T23:15:25.784Z,14.57
2023-05-10T23:17:54.166Z,14.53
2023-05-10T23:20:22.774Z,14.48
2023-05-10T23:22:51.117Z,14.46
2023-05-10T23:25:20.911Z,14.41
2023-05-10T23:27:49.221Z,14.35
2023-05-10T23:30:18.028Z,14.32
2023-05-10T23:32:46.557Z,14.29
2023-05-10T23:35:14.912Z,14.23
2023-05-10T23:37:43.485Z,14.16
2023-05-10T23:40:13.481Z,14.10
2023-05-10T23:42:43.386Z,14.05
2023-05-10T23:45:12.580Z,13.99
2023-05-10T23:47:41.541Z,13.98
2023-05-10T23:50:11.088Z,13.94
2023-05-10T23:52:39.404Z,13.93
2023-05-10T23:55:08.845Z,13.91
2023-05-10T23:57:37.191Z,13.92
